sensor_id;sensor_type;location;lat;lon;timestamp;P1;P2;P0
46681;PMS5003;34101;53.430;-2.224;2022-12-18T00:02:15;16;14;
46681;PMS5003;34101;53.430;-2.224;2022-12-18T00:04:42;19;16;
46681;PMS5003;34101;53.430;-2.224;2022-12-18T00:07:09;13;13;
46681;PMS5003;34101;53.430;-2.224;2022-12-18T00:09:37;16;13;
46681;PMS5003;34101;53.430;-2.224;2022-12-18T00:12:04;13;13;
46681;PMS5003;34101;53.430;-2.224;2022-12-18T00:14:32;13;12;
46681;PMS5003;34101;53.430;-2.224;2022-12-18T00:17:00;15;12;
46681;PMS5003;34101;53.430;-2.224;2022-12-18T00:19:27;10;10;
46681;PMS5003;34101;53.430;-2.224;2022-12-18T00:21:54;12;12;
46681;PMS5003;34101;53.430;-2.224;2022-12-18T00:24:22;12;12;
46681;PMS5003;34101;53.430;-2.224;2022-12-18T00:26:49;12;12;
46681;PMS5003;34101;53.430;-2.224;2022-12-18T00:29:17;13;9;
46681;PMS5003;34101;53.430;-2.224;2022-12-18T00:31:44;11;10;
46681;PMS5003;34101;53.430;-2.224;2022-12-18T00:34:12;13;10;
46681;PMS5003;34101;53.430;-2.224;2022-12-18T00:36:40;11;11;
46681;PMS5003;34101;53.430;-2.224;2022-12-18T00:39:07;13;10;
46681;PMS5003;34101;53.430;-2.224;2022-12-18T00:41:36;13;13;
46681;PMS5003;34101;53.430;-2.224;2022-12-18T00:44:04;13;12;
46681;PMS5003;34101;53.430;-2.224;2022-12-18T00:46:33;12;11;
46681;PMS5003;34101;53.430;-2.224;2022-12-18T00:49:00;10;10;
46681;PMS5003;34101;53.430;-2.224;2022-12-18T00:51:29;12;10;
46681;PMS5003;34101;53.430;-2.224;2022-12-18T00:53:56;9;9;
46681;PMS5003;34101;53.430;-2.224;2022-12-18T00:56:23;10;10;
46681;PMS5003;34101;53.430;-2.224;2022-12-18T00:58:51;10;10;
46681;PMS5003;34101;53.430;-2.224;2022-12-18T01:01:19;15;14;
46681;PMS5003;34101;53.430;-2.224;2022-12-18T01:03:47;10;10;
46681;PMS5003;34101;53.430;-2.224;2022-12-18T01:06:16;12;10;
46681;PMS5003;34101;53.430;-2.224;2022-12-18T01:08:44;9;9;
46681;PMS5003;34101;53.430;-2.224;2022-12-18T01:11:12;10;10;
46681;PMS5003;34101;53.430;-2.224;2022-12-18T01:13:41;11;10;
46681;PMS5003;34101;53.430;-2.224;2022-12-18T01:16:10;10;10;
46681;PMS5003;34101;53.430;-2.224;2022-12-18T01:18:38;10;10;
46681;PMS5003;34101;53.430;-2.224;2022-12-18T01:21:06;11;11;
46681;PMS5003;34101;53.430;-2.224;2022-12-18T01:23:34;11;11;
46681;PMS5003;34101;53.430;-2.224;2022-12-18T01:26:05;11;11;
46681;PMS5003;34101;53.430;-2.224;2022-12-18T01:28:34;8;8;
46681;PMS5003;34101;53.430;-2.224;2022-12-18T01:31:10;11;11;
46681;PMS5003;34101;53.430;-2.224;2022-12-18T01:33:38;14;12;
46681;PMS5003;34101;53.430;-2.224;2022-12-18T01:36:05;10;9;
46681;PMS5003;34101;53.430;-2.224;2022-12-18T01:38:32;8;8;
46681;PMS5003;34101;53.430;-2.224;2022-12-18T01:41:00;8;8;
46681;PMS5003;34101;53.430;-2.224;2022-12-18T01:43:45;7;7;
46681;PMS5003;34101;53.430;-2.224;2022-12-18T01:46:15;10;10;
46681;PMS5003;34101;53.430;-2.224;2022-12-18T01:48:44;9;9;
46681;PMS5003;34101;53.430;-2.224;2022-12-18T01:51:13;7;7;
46681;PMS5003;34101;53.430;-2.224;2022-12-18T01:53:42;11;11;
46681;PMS5003;34101;53.430;-2.224;2022-12-18T01:56:12;9;8;
46681;PMS5003;34101;53.430;-2.224;2022-12-18T01:58:44;10;10;
46681;PMS5003;34101;53.430;-2.224;2022-12-18T02:01:20;7;7;
46681;PMS5003;34101;53.430;-2.224;2022-12-18T02:03:49;7;7;
46681;PMS5003;34101;53.430;-2.224;2022-12-18T02:06:19;11;11;
46681;PMS5003;34101;53.430;-2.224;2022-12-18T02:08:56;10;8;
46681;PMS5003;34101;53.430;-2.224;2022-12-18T02:11:35;8;8;
46681;PMS5003;34101;53.430;-2.224;2022-12-18T02:14:13;7;7;
46681;PMS5003;34101;53.430;-2.224;2022-12-18T02:16:50;8;8;
46681;PMS5003;34101;53.430;-2.224;2022-12-18T02:19:32;8;8;
46681;PMS5003;34101;53.430;-2.224;2022-12-18T02:22:13;7;7;
46681;PMS5003;34101;53.430;-2.224;2022-12-18T02:24:54;9;9;
46681;PMS5003;34101;53.430;-2.224;2022-12-18T02:27:30;8;8;
46681;PMS5003;34101;53.430;-2.224;2022-12-18T02:30:00;8;8;
46681;PMS5003;34101;53.430;-2.224;2022-12-18T02:32:31;8;8;
46681;PMS5003;34101;53.430;-2.224;2022-12-18T02:35:01;7;7;
46681;PMS5003;34101;53.430;-2.224;2022-12-18T02:37:32;8;8;
46681;PMS5003;34101;53.430;-2.224;2022-12-18T02:40:02;10;7;
46681;PMS5003;34101;53.430;-2.224;2022-12-18T02:42:31;10;7;
46681;PMS5003;34101;53.430;-2.224;2022-12-18T02:45:00;7;7;
46681;PMS5003;34101;53.430;-2.224;2022-12-18T02:47:29;8;8;
46681;PMS5003;34101;53.430;-2.224;2022-12-18T02:50:02;7;7;
46681;PMS5003;34101;53.430;-2.224;2022-12-18T02:52:39;8;8;
46681;PMS5003;34101;53.430;-2.224;2022-12-18T02:55:19;9;5;
46681;PMS5003;34101;53.430;-2.224;2022-12-18T02:58:00;5;5;
46681;PMS5003;34101;53.430;-2.224;2022-12-18T03:02:23;7;7;
46681;PMS5003;34101;53.430;-2.224;2022-12-18T03:05:11;8;7;
46681;PMS5003;34101;53.430;-2.224;2022-12-18T03:07:43;8;8;
46681;PMS5003;34101;53.430;-2.224;2022-12-18T03:10:19;7;7;
46681;PMS5003;34101;53.430;-2.224;2022-12-18T03:12:53;9;5;
46681;PMS5003;34101;53.430;-2.224;2022-12-18T03:15:27;11;9;
46681;PMS5003;34101;53.430;-2.224;2022-12-18T03:17:59;10;9;
46681;PMS5003;34101;53.430;-2.224;2022-12-18T03:20:31;7;5;
46681;PMS5003;34101;53.430;-2.224;2022-12-18T03:23:04;9;9;
46681;PMS5003;34101;53.430;-2.224;2022-12-18T03:25:38;9;7;
46681;PMS5003;34101;53.430;-2.224;2022-12-18T03:28:09;8;8;
46681;PMS5003;34101;53.430;-2.224;2022-12-18T03:30:40;13;11;
46681;PMS5003;34101;53.430;-2.224;2022-12-18T03:33:11;13;11;
46681;PMS5003;34101;53.430;-2.224;2022-12-18T03:35:43;13;11;
46681;PMS5003;34101;53.430;-2.224;2022-12-18T03:38:11;9;9;
46681;PMS5003;34101;53.430;-2.224;2022-12-18T03:40:43;12;11;
46681;PMS5003;34101;53.430;-2.224;2022-12-18T03:43:18;11;11;
46681;PMS5003;34101;53.430;-2.224;2022-12-18T03:45:58;10;9;
46681;PMS5003;34101;53.430;-2.224;2022-12-18T03:48:31;9;8;
46681;PMS5003;34101;53.430;-2.224;2022-12-18T03:51:05;10;10;
46681;PMS5003;34101;53.430;-2.224;2022-12-18T03:53:38;8;8;
46681;PMS5003;34101;53.430;-2.224;2022-12-18T03:56:13;8;8;
46681;PMS5003;34101;53.430;-2.224;2022-12-18T03:58:43;8;8;
46681;PMS5003;34101;53.430;-2.224;2022-12-18T04:01:12;9;9;
46681;PMS5003;34101;53.430;-2.224;2022-12-18T04:03:41;8;8;
46681;PMS5003;34101;53.430;-2.224;2022-12-18T04:06:10;7;7;
46681;PMS5003;34101;53.430;-2.224;2022-12-18T04:08:38;10;9;
46681;PMS5003;34101;53.430;-2.224;2022-12-18T04:11:06;9;7;
46681;PMS5003;34101;53.430;-2.224;2022-12-18T04:13:35;11;9;
46681;PMS5003;34101;53.430;-2.224;2022-12-18T04:16:03;8;8;
46681;PMS5003;34101;53.430;-2.224;2022-12-18T04:18:31;9;9;
46681;PMS5003;34101;53.430;-2.224;2022-12-18T04:20:58;10;10;
46681;PMS5003;34101;53.430;-2.224;2022-12-18T04:23:26;10;10;
46681;PMS5003;34101;53.430;-2.224;2022-12-18T04:25:53;10;10;
46681;PMS5003;34101;53.430;-2.224;2022-12-18T04:28:21;7;7;
46681;PMS5003;34101;53.430;-2.224;2022-12-18T04:30:49;10;8;
46681;PMS5003;34101;53.430;-2.224;2022-12-18T04:33:16;9;9;
46681;PMS5003;34101;53.430;-2.224;2022-12-18T04:35:44;10;7;
46681;PMS5003;34101;53.430;-2.224;2022-12-18T04:38:11;9;9;
46681;PMS5003;34101;53.430;-2.224;2022-12-18T04:40:39;10;9;
46681;PMS5003;34101;53.430;-2.224;2022-12-18T04:43:06;11;10;
46681;PMS5003;34101;53.430;-2.224;2022-12-18T04:45:34;11;9;
46681;PMS5003;34101;53.430;-2.224;2022-12-18T04:48:02;9;9;
46681;PMS5003;34101;53.430;-2.224;2022-12-18T04:50:30;10;9;
46681;PMS5003;34101;53.430;-2.224;2022-12-18T04:52:58;13;11;
46681;PMS5003;34101;53.430;-2.224;2022-12-18T04:55:25;11;10;
46681;PMS5003;34101;53.430;-2.224;2022-12-18T04:57:54;10;10;
46681;PMS5003;34101;53.430;-2.224;2022-12-18T05:00:22;11;11;
46681;PMS5003;34101;53.430;-2.224;2022-12-18T05:02:49;15;15;
46681;PMS5003;34101;53.430;-2.224;2022-12-18T05:05:17;17;14;
46681;PMS5003;34101;53.430;-2.224;2022-12-18T05:07:44;14;11;
46681;PMS5003;34101;53.430;-2.224;2022-12-18T05:10:12;18;15;
46681;PMS5003;34101;53.430;-2.224;2022-12-18T05:12:39;15;14;
46681;PMS5003;34101;53.430;-2.224;2022-12-18T05:15:06;17;15;
46681;PMS5003;34101;53.430;-2.224;2022-12-18T05:17:34;17;16;
46681;PMS5003;34101;53.430;-2.224;2022-12-18T05:20:02;21;18;
46681;PMS5003;34101;53.430;-2.224;2022-12-18T05:22:29;18;18;
46681;PMS5003;34101;53.430;-2.224;2022-12-18T05:24:57;21;21;
46681;PMS5003;34101;53.430;-2.224;2022-12-18T05:27:24;17;17;
46681;PMS5003;34101;53.430;-2.224;2022-12-18T05:29:52;25;22;
46681;PMS5003;34101;53.430;-2.224;2022-12-18T05:32:19;23;21;
46681;PMS5003;34101;53.430;-2.224;2022-12-18T05:34:46;21;17;
46681;PMS5003;34101;53.430;-2.224;2022-12-18T05:37:14;28;27;
46681;PMS5003;34101;53.430;-2.224;2022-12-18T05:39:40;25;23;
46681;PMS5003;34101;53.430;-2.224;2022-12-18T05:42:10;20;17;
46681;PMS5003;34101;53.430;-2.224;2022-12-18T05:44:37;23;21;
46681;PMS5003;34101;53.430;-2.224;2022-12-18T05:47:04;22;20;
46681;PMS5003;34101;53.430;-2.224;2022-12-18T05:49:32;22;21;
46681;PMS5003;34101;53.430;-2.224;2022-12-18T05:51:59;22;22;
46681;PMS5003;34101;53.430;-2.224;2022-12-18T05:54:27;25;23;
46681;PMS5003;34101;53.430;-2.224;2022-12-18T05:56:54;25;22;
46681;PMS5003;34101;53.430;-2.224;2022-12-18T05:59:23;23;21;
46681;PMS5003;34101;53.430;-2.224;2022-12-18T06:01:50;22;21;
46681;PMS5003;34101;53.430;-2.224;2022-12-18T06:04:17;29;27;
46681;PMS5003;34101;53.430;-2.224;2022-12-18T06:06:45;25;24;
46681;PMS5003;34101;53.430;-2.224;2022-12-18T06:09:12;23;22;
46681;PMS5003;34101;53.430;-2.224;2022-12-18T06:11:39;24;21;
46681;PMS5003;34101;53.430;-2.224;2022-12-18T06:14:08;28;25;
46681;PMS5003;34101;53.430;-2.224;2022-12-18T06:16:36;24;23;
46681;PMS5003;34101;53.430;-2.224;2022-12-18T06:19:04;25;23;
46681;PMS5003;34101;53.430;-2.224;2022-12-18T06:21:32;24;24;
46681;PMS5003;34101;53.430;-2.224;2022-12-18T06:23:59;28;25;
46681;PMS5003;34101;53.430;-2.224;2022-12-18T06:26:27;25;25;
46681;PMS5003;34101;53.430;-2.224;2022-12-18T06:28:54;34;26;
46681;PMS5003;34101;53.430;-2.224;2022-12-18T06:31:22;26;25;
46681;PMS5003;34101;53.430;-2.224;2022-12-18T06:33:49;26;22;
46681;PMS5003;34101;53.430;-2.224;2022-12-18T06:36:17;23;22;
46681;PMS5003;34101;53.430;-2.224;2022-12-18T06:38:45;28;28;
46681;PMS5003;34101;53.430;-2.224;2022-12-18T06:41:14;23;22;
46681;PMS5003;34101;53.430;-2.224;2022-12-18T06:43:42;29;26;
46681;PMS5003;34101;53.430;-2.224;2022-12-18T06:46:10;32;30;
46681;PMS5003;34101;53.430;-2.224;2022-12-18T06:48:38;25;24;
46681;PMS5003;34101;53.430;-2.224;2022-12-18T06:51:06;34;30;
46681;PMS5003;34101;53.430;-2.224;2022-12-18T06:53:33;31;27;
46681;PMS5003;34101;53.430;-2.224;2022-12-18T06:56:02;32;29;
46681;PMS5003;34101;53.430;-2.224;2022-12-18T06:58:30;26;26;
46681;PMS5003;34101;53.430;-2.224;2022-12-18T07:00:59;34;30;
46681;PMS5003;34101;53.430;-2.224;2022-12-18T07:03:27;29;23;
46681;PMS5003;34101;53.430;-2.224;2022-12-18T07:05:54;27;25;
46681;PMS5003;34101;53.430;-2.224;2022-12-18T07:08:22;29;25;
46681;PMS5003;34101;53.430;-2.224;2022-12-18T07:10:49;36;30;
46681;PMS5003;34101;53.430;-2.224;2022-12-18T07:13:17;31;28;
46681;PMS5003;34101;53.430;-2.224;2022-12-18T07:15:44;27;26;
46681;PMS5003;34101;53.430;-2.224;2022-12-18T07:18:11;31;27;
46681;PMS5003;34101;53.430;-2.224;2022-12-18T07:20:38;27;25;
46681;PMS5003;34101;53.430;-2.224;2022-12-18T07:23:05;28;25;
46681;PMS5003;34101;53.430;-2.224;2022-12-18T07:25:33;29;25;
46681;PMS5003;34101;53.430;-2.224;2022-12-18T07:28:00;25;25;
46681;PMS5003;34101;53.430;-2.224;2022-12-18T07:30:28;30;28;
46681;PMS5003;34101;53.430;-2.224;2022-12-18T07:32:55;26;24;
46681;PMS5003;34101;53.430;-2.224;2022-12-18T07:35:23;32;32;
46681;PMS5003;34101;53.430;-2.224;2022-12-18T07:37:50;43;37;
46681;PMS5003;34101;53.430;-2.224;2022-12-18T07:40:18;30;30;
46681;PMS5003;34101;53.430;-2.224;2022-12-18T07:42:45;36;35;
46681;PMS5003;34101;53.430;-2.224;2022-12-18T07:45:12;30;24;
46681;PMS5003;34101;53.430;-2.224;2022-12-18T07:47:39;30;27;
46681;PMS5003;34101;53.430;-2.224;2022-12-18T07:50:07;37;32;
46681;PMS5003;34101;53.430;-2.224;2022-12-18T07:52:34;27;27;
46681;PMS5003;34101;53.430;-2.224;2022-12-18T07:55:02;26;25;
46681;PMS5003;34101;53.430;-2.224;2022-12-18T07:57:30;28;25;
46681;PMS5003;34101;53.430;-2.224;2022-12-18T07:59:57;33;31;
46681;PMS5003;34101;53.430;-2.224;2022-12-18T08:02:24;34;32;
46681;PMS5003;34101;53.430;-2.224;2022-12-18T08:04:51;33;31;
46681;PMS5003;34101;53.430;-2.224;2022-12-18T08:07:18;31;29;
46681;PMS5003;34101;53.430;-2.224;2022-12-18T08:09:46;40;34;
46681;PMS5003;34101;53.430;-2.224;2022-12-18T08:12:13;31;28;
46681;PMS5003;34101;53.430;-2.224;2022-12-18T08:14:40;35;34;
46681;PMS5003;34101;53.430;-2.224;2022-12-18T08:17:07;37;33;
46681;PMS5003;34101;53.430;-2.224;2022-12-18T08:19:34;34;31;
46681;PMS5003;34101;53.430;-2.224;2022-12-18T08:22:01;34;32;
46681;PMS5003;34101;53.430;-2.224;2022-12-18T08:24:29;42;39;
46681;PMS5003;34101;53.430;-2.224;2022-12-18T08:26:56;33;31;
46681;PMS5003;34101;53.430;-2.224;2022-12-18T08:29:23;37;34;
46681;PMS5003;34101;53.430;-2.224;2022-12-18T08:31:50;29;29;
46681;PMS5003;34101;53.430;-2.224;2022-12-18T08:34:17;39;38;
46681;PMS5003;34101;53.430;-2.224;2022-12-18T08:36:44;43;38;
46681;PMS5003;34101;53.430;-2.224;2022-12-18T08:39:12;38;35;
46681;PMS5003;34101;53.430;-2.224;2022-12-18T08:41:39;34;33;
46681;PMS5003;34101;53.430;-2.224;2022-12-18T08:44:07;38;36;
46681;PMS5003;34101;53.430;-2.224;2022-12-18T08:46:34;44;39;
46681;PMS5003;34101;53.430;-2.224;2022-12-18T08:49:04;37;34;
46681;PMS5003;34101;53.430;-2.224;2022-12-18T08:51:32;34;33;
46681;PMS5003;34101;53.430;-2.224;2022-12-18T08:54:00;51;38;
46681;PMS5003;34101;53.430;-2.224;2022-12-18T08:56:28;30;30;
46681;PMS5003;34101;53.430;-2.224;2022-12-18T08:58:56;37;33;
46681;PMS5003;34101;53.430;-2.224;2022-12-18T09:01:24;39;33;
46681;PMS5003;34101;53.430;-2.224;2022-12-18T09:03:51;35;33;
46681;PMS5003;34101;53.430;-2.224;2022-12-18T09:06:20;39;33;
46681;PMS5003;34101;53.430;-2.224;2022-12-18T09:08:48;34;33;
46681;PMS5003;34101;53.430;-2.224;2022-12-18T09:11:19;30;27;
46681;PMS5003;34101;53.430;-2.224;2022-12-18T09:13:48;32;30;
46681;PMS5003;34101;53.430;-2.224;2022-12-18T09:16:16;36;34;
46681;PMS5003;34101;53.430;-2.224;2022-12-18T09:18:43;33;32;
46681;PMS5003;34101;53.430;-2.224;2022-12-18T09:21:10;44;39;
46681;PMS5003;34101;53.430;-2.224;2022-12-18T09:23:39;33;30;
46681;PMS5003;34101;53.430;-2.224;2022-12-18T09:26:07;38;32;
46681;PMS5003;34101;53.430;-2.224;2022-12-18T09:28:34;48;41;
46681;PMS5003;34101;53.430;-2.224;2022-12-18T09:31:04;38;33;
46681;PMS5003;34101;53.430;-2.224;2022-12-18T09:33:33;44;38;
46681;PMS5003;34101;53.430;-2.224;2022-12-18T09:36:02;35;35;
46681;PMS5003;34101;53.430;-2.224;2022-12-18T09:38:33;39;35;
46681;PMS5003;34101;53.430;-2.224;2022-12-18T09:41:03;38;32;
46681;PMS5003;34101;53.430;-2.224;2022-12-18T09:43:43;34;33;
46681;PMS5003;34101;53.430;-2.224;2022-12-18T09:46:16;40;36;
46681;PMS5003;34101;53.430;-2.224;2022-12-18T09:48:48;28;26;
46681;PMS5003;34101;53.430;-2.224;2022-12-18T09:51:18;36;33;
46681;PMS5003;34101;53.430;-2.224;2022-12-18T09:53:55;33;31;
46681;PMS5003;34101;53.430;-2.224;2022-12-18T09:56:26;35;33;
46681;PMS5003;34101;53.430;-2.224;2022-12-18T09:58:58;39;36;
46681;PMS5003;34101;53.430;-2.224;2022-12-18T10:01:28;43;39;
46681;PMS5003;34101;53.430;-2.224;2022-12-18T10:03:56;41;35;
46681;PMS5003;34101;53.430;-2.224;2022-12-18T10:06:26;38;33;
46681;PMS5003;34101;53.430;-2.224;2022-12-18T10:09:03;34;34;
46681;PMS5003;34101;53.430;-2.224;2022-12-18T10:11:39;29;29;
46681;PMS5003;34101;53.430;-2.224;2022-12-18T10:14:16;36;34;
46681;PMS5003;34101;53.430;-2.224;2022-12-18T10:16:53;37;35;
46681;PMS5003;34101;53.430;-2.224;2022-12-18T10:19:34;31;28;
46681;PMS5003;34101;53.430;-2.224;2022-12-18T10:22:11;40;35;
46681;PMS5003;34101;53.430;-2.224;2022-12-18T10:24:48;33;32;
46681;PMS5003;34101;53.430;-2.224;2022-12-18T10:27:23;34;30;
46681;PMS5003;34101;53.430;-2.224;2022-12-18T10:29:51;41;35;
46681;PMS5003;34101;53.430;-2.224;2022-12-18T10:32:20;32;29;
46681;PMS5003;34101;53.430;-2.224;2022-12-18T10:34:49;26;24;
46681;PMS5003;34101;53.430;-2.224;2022-12-18T10:37:18;30;29;
46681;PMS5003;34101;53.430;-2.224;2022-12-18T10:40:04;40;32;
46681;PMS5003;34101;53.430;-2.224;2022-12-18T10:42:35;29;27;
46681;PMS5003;34101;53.430;-2.224;2022-12-18T10:45:05;34;32;
46681;PMS5003;34101;53.430;-2.224;2022-12-18T10:47:35;34;33;
46681;PMS5003;34101;53.430;-2.224;2022-12-18T10:50:11;35;31;
46681;PMS5003;34101;53.430;-2.224;2022-12-18T10:52:53;35;32;
46681;PMS5003;34101;53.430;-2.224;2022-12-18T10:55:22;44;38;
46681;PMS5003;34101;53.430;-2.224;2022-12-18T10:57:53;35;30;
46681;PMS5003;34101;53.430;-2.224;2022-12-18T11:00:22;37;34;
46681;PMS5003;34101;53.430;-2.224;2022-12-18T11:02:52;36;33;
46681;PMS5003;34101;53.430;-2.224;2022-12-18T11:05:24;36;34;
46681;PMS5003;34101;53.430;-2.224;2022-12-18T11:07:53;43;37;
46681;PMS5003;34101;53.430;-2.224;2022-12-18T11:10:22;37;34;
46681;PMS5003;34101;53.430;-2.224;2022-12-18T11:12:53;36;34;
46681;PMS5003;34101;53.430;-2.224;2022-12-18T11:15:20;33;29;
46681;PMS5003;34101;53.430;-2.224;2022-12-18T11:17:53;37;35;
46681;PMS5003;34101;53.430;-2.224;2022-12-18T11:20:23;41;36;
46681;PMS5003;34101;53.430;-2.224;2022-12-18T11:22:57;45;39;
46681;PMS5003;34101;53.430;-2.224;2022-12-18T11:25:27;33;33;
46681;PMS5003;34101;53.430;-2.224;2022-12-18T11:27:56;33;33;
46681;PMS5003;34101;53.430;-2.224;2022-12-18T11:30:26;41;37;
46681;PMS5003;34101;53.430;-2.224;2022-12-18T11:32:56;37;33;
46681;PMS5003;34101;53.430;-2.224;2022-12-18T11:35:32;33;29;
46681;PMS5003;34101;53.430;-2.224;2022-12-18T11:38:06;36;32;
46681;PMS5003;34101;53.430;-2.224;2022-12-18T11:40:44;39;35;
46681;PMS5003;34101;53.430;-2.224;2022-12-18T11:43:17;28;27;
46681;PMS5003;34101;53.430;-2.224;2022-12-18T11:45:53;36;31;
46681;PMS5003;34101;53.430;-2.224;2022-12-18T11:48:25;40;33;
46681;PMS5003;34101;53.430;-2.224;2022-12-18T11:50:55;33;30;
46681;PMS5003;34101;53.430;-2.224;2022-12-18T11:53:26;36;34;
46681;PMS5003;34101;53.430;-2.224;2022-12-18T11:55:58;39;38;
46681;PMS5003;34101;53.430;-2.224;2022-12-18T11:58:35;39;36;
46681;PMS5003;34101;53.430;-2.224;2022-12-18T12:01:16;35;35;
46681;PMS5003;34101;53.430;-2.224;2022-12-18T12:03:53;28;26;
46681;PMS5003;34101;53.430;-2.224;2022-12-18T12:06:31;35;31;
46681;PMS5003;34101;53.430;-2.224;2022-12-18T12:09:10;33;33;
46681;PMS5003;34101;53.430;-2.224;2022-12-18T12:11:48;36;31;
46681;PMS5003;34101;53.430;-2.224;2022-12-18T12:14:34;41;36;
46681;PMS5003;34101;53.430;-2.224;2022-12-18T12:17:11;35;33;
46681;PMS5003;34101;53.430;-2.224;2022-12-18T12:19:48;33;31;
46681;PMS5003;34101;53.430;-2.224;2022-12-18T12:22:28;37;34;
46681;PMS5003;34101;53.430;-2.224;2022-12-18T12:25:09;36;33;
46681;PMS5003;34101;53.430;-2.224;2022-12-18T12:27:46;36;31;
46681;PMS5003;34101;53.430;-2.224;2022-12-18T12:30:26;40;35;
46681;PMS5003;34101;53.430;-2.224;2022-12-18T12:33:04;38;36;
46681;PMS5003;34101;53.430;-2.224;2022-12-18T12:35:44;40;36;
46681;PMS5003;34101;53.430;-2.224;2022-12-18T12:38:19;34;31;
46681;PMS5003;34101;53.430;-2.224;2022-12-18T12:40:51;37;36;
46681;PMS5003;34101;53.430;-2.224;2022-12-18T12:43:22;34;31;
46681;PMS5003;34101;53.430;-2.224;2022-12-18T12:45:56;32;27;
46681;PMS5003;34101;53.430;-2.224;2022-12-18T12:48:31;26;26;
46681;PMS5003;34101;53.430;-2.224;2022-12-18T12:51:03;34;30;
46681;PMS5003;34101;53.430;-2.224;2022-12-18T12:53:36;25;25;
46681;PMS5003;34101;53.430;-2.224;2022-12-18T12:56:05;28;26;
46681;PMS5003;34101;53.430;-2.224;2022-12-18T12:58:41;29;29;
46681;PMS5003;34101;53.430;-2.224;2022-12-18T13:01:17;24;21;
46681;PMS5003;34101;53.430;-2.224;2022-12-18T13:03:55;38;35;
46681;PMS5003;34101;53.430;-2.224;2022-12-18T13:06:33;24;24;
46681;PMS5003;34101;53.430;-2.224;2022-12-18T13:09:07;35;29;
46681;PMS5003;34101;53.430;-2.224;2022-12-18T13:11:35;35;34;
46681;PMS5003;34101;53.430;-2.224;2022-12-18T13:14:12;30;27;
46681;PMS5003;34101;53.430;-2.224;2022-12-18T13:16:49;28;27;
46681;PMS5003;34101;53.430;-2.224;2022-12-18T13:19:21;29;26;
46681;PMS5003;34101;53.430;-2.224;2022-12-18T13:21:52;28;25;
46681;PMS5003;34101;53.430;-2.224;2022-12-18T13:24:23;30;25;
46681;PMS5003;34101;53.430;-2.224;2022-12-18T13:26:53;29;27;
46681;PMS5003;34101;53.430;-2.224;2022-12-18T13:29:40;29;28;
46681;PMS5003;34101;53.430;-2.224;2022-12-18T13:32:25;34;32;
46681;PMS5003;34101;53.430;-2.224;2022-12-18T13:36:00;32;30;
46681;PMS5003;34101;53.430;-2.224;2022-12-18T13:38:40;28;25;
46681;PMS5003;34101;53.430;-2.224;2022-12-18T13:41:26;27;24;
46681;PMS5003;34101;53.430;-2.224;2022-12-18T13:43:53;29;28;
46681;PMS5003;34101;53.430;-2.224;2022-12-18T13:46:26;26;26;
46681;PMS5003;34101;53.430;-2.224;2022-12-18T13:48:57;28;27;
46681;PMS5003;34101;53.430;-2.224;2022-12-18T13:51:26;29;27;
46681;PMS5003;34101;53.430;-2.224;2022-12-18T13:53:57;35;29;
46681;PMS5003;34101;53.430;-2.224;2022-12-18T13:56:27;23;23;
46681;PMS5003;34101;53.430;-2.224;2022-12-18T13:59:03;29;26;
46681;PMS5003;34101;53.430;-2.224;2022-12-18T14:01:41;32;27;
46681;PMS5003;34101;53.430;-2.224;2022-12-18T14:04:11;26;24;
46681;PMS5003;34101;53.430;-2.224;2022-12-18T14:06:39;34;31;
46681;PMS5003;34101;53.430;-2.224;2022-12-18T14:09:10;30;27;
46681;PMS5003;34101;53.430;-2.224;2022-12-18T14:11:40;29;26;
46681;PMS5003;34101;53.430;-2.224;2022-12-18T14:14:13;40;35;
46681;PMS5003;34101;53.430;-2.224;2022-12-18T14:16:41;35;32;
46681;PMS5003;34101;53.430;-2.224;2022-12-18T14:19:09;31;28;
46681;PMS5003;34101;53.430;-2.224;2022-12-18T14:21:40;32;32;
46681;PMS5003;34101;53.430;-2.224;2022-12-18T14:24:14;34;29;
46681;PMS5003;34101;53.430;-2.224;2022-12-18T14:26:42;32;31;
46681;PMS5003;34101;53.430;-2.224;2022-12-18T14:29:19;30;30;
46681;PMS5003;34101;53.430;-2.224;2022-12-18T14:32:05;28;27;
46681;PMS5003;34101;53.430;-2.224;2022-12-18T14:34:36;34;33;
46681;PMS5003;34101;53.430;-2.224;2022-12-18T14:37:03;30;30;
46681;PMS5003;34101;53.430;-2.224;2022-12-18T14:39:32;31;28;
46681;PMS5003;34101;53.430;-2.224;2022-12-18T14:41:59;34;29;
46681;PMS5003;34101;53.430;-2.224;2022-12-18T14:44:26;36;29;
46681;PMS5003;34101;53.430;-2.224;2022-12-18T14:46:54;42;41;
46681;PMS5003;34101;53.430;-2.224;2022-12-18T14:49:23;36;36;
46681;PMS5003;34101;53.430;-2.224;2022-12-18T14:51:54;42;40;
46681;PMS5003;34101;53.430;-2.224;2022-12-18T14:54:23;35;35;
46681;PMS5003;34101;53.430;-2.224;2022-12-18T14:56:54;37;33;
46681;PMS5003;34101;53.430;-2.224;2022-12-18T14:59:27;31;27;
46681;PMS5003;34101;53.430;-2.224;2022-12-18T15:01:57;27;24;
46681;PMS5003;34101;53.430;-2.224;2022-12-18T15:04:30;17;17;
46681;PMS5003;34101;53.430;-2.224;2022-12-18T15:07:04;22;21;
46681;PMS5003;34101;53.430;-2.224;2022-12-18T15:09:37;21;18;
46681;PMS5003;34101;53.430;-2.224;2022-12-18T15:12:05;24;18;
46681;PMS5003;34101;53.430;-2.224;2022-12-18T15:14:44;16;16;
46681;PMS5003;34101;53.430;-2.224;2022-12-18T15:17:15;17;16;
46681;PMS5003;34101;53.430;-2.224;2022-12-18T15:19:46;18;18;
46681;PMS5003;34101;53.430;-2.224;2022-12-18T15:22:19;14;14;
46681;PMS5003;34101;53.430;-2.224;2022-12-18T15:24:49;14;14;
46681;PMS5003;34101;53.430;-2.224;2022-12-18T15:27:20;17;17;
46681;PMS5003;34101;53.430;-2.224;2022-12-18T15:30:23;12;12;
46681;PMS5003;34101;53.430;-2.224;2022-12-18T15:32:52;20;17;
46681;PMS5003;34101;53.430;-2.224;2022-12-18T15:35:42;17;17;
46681;PMS5003;34101;53.430;-2.224;2022-12-18T15:38:10;14;14;
46681;PMS5003;34101;53.430;-2.224;2022-12-18T15:40:37;28;26;
46681;PMS5003;34101;53.430;-2.224;2022-12-18T15:43:04;26;20;
46681;PMS5003;34101;53.430;-2.224;2022-12-18T15:45:34;20;19;
46681;PMS5003;34101;53.430;-2.224;2022-12-18T15:48:04;18;15;
46681;PMS5003;34101;53.430;-2.224;2022-12-18T15:50:41;18;18;
46681;PMS5003;34101;53.430;-2.224;2022-12-18T15:53:08;16;16;
46681;PMS5003;34101;53.430;-2.224;2022-12-18T15:55:52;19;15;
46681;PMS5003;34101;53.430;-2.224;2022-12-18T15:58:20;27;27;
46681;PMS5003;34101;53.430;-2.224;2022-12-18T16:00:47;22;19;
46681;PMS5003;34101;53.430;-2.224;2022-12-18T16:03:14;18;18;
46681;PMS5003;34101;53.430;-2.224;2022-12-18T16:05:42;16;16;
46681;PMS5003;34101;53.430;-2.224;2022-12-18T16:08:09;21;21;
46681;PMS5003;34101;53.430;-2.224;2022-12-18T16:10:36;21;20;
46681;PMS5003;34101;53.430;-2.224;2022-12-18T16:13:04;15;15;
46681;PMS5003;34101;53.430;-2.224;2022-12-18T16:15:32;14;14;
46681;PMS5003;34101;53.430;-2.224;2022-12-18T16:18:00;13;13;
46681;PMS5003;34101;53.430;-2.224;2022-12-18T16:20:27;18;16;
46681;PMS5003;34101;53.430;-2.224;2022-12-18T16:22:54;21;18;
46681;PMS5003;34101;53.430;-2.224;2022-12-18T16:25:22;20;19;
46681;PMS5003;34101;53.430;-2.224;2022-12-18T16:27:51;21;21;
46681;PMS5003;34101;53.430;-2.224;2022-12-18T16:30:20;15;15;
46681;PMS5003;34101;53.430;-2.224;2022-12-18T16:32:49;13;13;